createdAt,value
2022-12-27T00:00:16.536Z,32.03
2022-12-27T00:02:45.655Z,32.97
2022-12-27T00:05:16.674Z,29.73
2022-12-27T00:07:46.396Z,30.50
2022-12-27T00:10:15.443Z,29.27
2022-12-27T00:12:44.692Z,29.85
2022-12-27T00:15:13.698Z,29.27
2022-12-27T00:17:45.475Z,28.60
2022-12-27T00:23:09.043Z,27.33
2022-12-27T00:25:38.029Z,27.17
2022-12-27T00:28:07.077Z,27.35
2022-12-27T00:30:36.092Z,29.58
2022-12-27T00:33:07.151Z,31.00
2022-12-27T00:35:38.835Z,30.55
2022-12-27T00:38:08.039Z,31.25
2022-12-27T00:40:40.149Z,29.48
2022-12-27T00:43:09.448Z,31.23
2022-12-27T00:45:38.468Z,24.67
2022-12-27T00:48:07.895Z,29.67
2022-12-27T00:50:36.933Z,25.20
2022-12-27T00:53:05.950Z,19.75
2022-12-27T00:55:35.221Z,17.67
2022-12-27T00:58:04.610Z,19.02
2022-12-27T01:00:33.665Z,19.02
2022-12-27T01:03:02.793Z,16.95
2022-12-27T01:05:31.727Z,17.17
2022-12-27T01:08:00.751Z,15.70
2022-12-27T01:10:29.767Z,14.57
2022-12-27T01:12:59.051Z,15.18
2022-12-27T01:15:28.161Z,15.68
2022-12-27T01:17:57.202Z,13.40
2022-12-27T01:20:26.234Z,14.60
2022-12-27T01:22:56.124Z,13.20
2022-12-27T01:25:25.103Z,12.52
2022-12-27T01:27:54.116Z,14.00
2022-12-27T01:30:23.045Z,15.05
2022-12-27T01:32:52.005Z,7.93
2022-12-27T01:35:20.995Z,8.73
2022-12-27T01:37:50.065Z,8.30
2022-12-27T01:40:19.214Z,7.60
2022-12-27T01:42:54.101Z,7.20
2022-12-27T01:45:24.285Z,5.80
2022-12-27T01:48:22.987Z,5.63
2022-12-27T01:51:00.925Z,5.97
2022-12-27T01:53:37.986Z,5.63
2022-12-27T01:56:26.887Z,6.15
2022-12-27T01:59:15.999Z,6.38
2022-12-27T02:01:48.564Z,6.70
2022-12-27T02:04:20.714Z,7.80
2022-12-27T02:06:50.642Z,7.05
2022-12-27T02:09:31.786Z,6.63
2022-12-27T02:12:03.062Z,7.55
2022-12-27T02:14:39.597Z,8.20
2022-12-27T02:17:22.646Z,9.07
2022-12-27T02:20:15.366Z,9.35
2022-12-27T02:23:43.463Z,8.63
2022-12-27T02:26:41.869Z,9.15
2022-12-27T02:29:24.318Z,9.25
2022-12-27T02:32:08.846Z,11.50
2022-12-27T02:34:49.792Z,9.63
2022-12-27T02:37:21.824Z,9.30
2022-12-27T02:39:53.127Z,9.07
2022-12-27T02:42:41.172Z,10.43
2022-12-27T02:45:40.531Z,9.07
2022-12-27T02:48:32.736Z,10.80
2022-12-27T02:51:32.026Z,8.18
2022-12-27T02:54:16.428Z,9.40
2022-12-27T03:00:09.306Z,8.57
2022-12-27T03:03:16.187Z,6.90
2022-12-27T03:06:17.969Z,6.53
2022-12-27T03:09:43.781Z,6.25
2022-12-27T03:13:02.317Z,5.43
2022-12-27T03:15:49.681Z,5.65
2022-12-27T03:18:39.755Z,5.85
2022-12-27T03:21:28.375Z,5.55
2022-12-27T03:24:18.080Z,5.93
2022-12-27T03:26:50.593Z,5.25
2022-12-27T03:29:41.270Z,5.38
2022-12-27T03:32:31.805Z,5.78
2022-12-27T03:35:22.826Z,5.63
2022-12-27T03:38:05.110Z,5.57
2022-12-27T03:41:13.116Z,13.48
2022-12-27T03:43:42.932Z,17.27
2022-12-27T03:46:35.599Z,12.52
2022-12-27T03:49:12.027Z,12.23
2022-12-27T03:51:56.457Z,7.20
2022-12-27T03:54:36.231Z,5.90
2022-12-27T03:57:09.360Z,5.55
2022-12-27T03:59:38.643Z,5.10
2022-12-27T04:02:08.498Z,5.13
2022-12-27T04:04:38.409Z,5.07
2022-12-27T04:07:08.198Z,5.90
2022-12-27T04:09:55.503Z,6.50
2022-12-27T04:12:42.689Z,9.18
2022-12-27T04:15:30.378Z,6.70
2022-12-27T04:18:17.487Z,5.45
2022-12-27T04:21:04.625Z,5.75
2022-12-27T04:23:51.698Z,4.88
2022-12-27T04:26:38.824Z,6.80
2022-12-27T04:29:26.152Z,7.70
2022-12-27T04:32:13.584Z,5.13
2022-12-27T04:34:45.400Z,5.25
2022-12-27T04:37:17.433Z,4.63
2022-12-27T04:40:05.965Z,4.50
2022-12-27T04:42:52.998Z,13.90
2022-12-27T04:45:40.527Z,6.35
2022-12-27T04:48:33.042Z,7.93
2022-12-27T04:51:21.427Z,6.80
2022-12-27T04:54:08.530Z,5.18
2022-12-27T04:56:37.602Z,5.10
2022-12-27T04:59:24.853Z,4.63
2022-12-27T05:02:06.023Z,4.72
2022-12-27T05:04:38.149Z,9.43
2022-12-27T05:07:27.967Z,6.45
2022-12-27T05:10:15.733Z,5.70
2022-12-27T05:13:02.981Z,5.05
2022-12-27T05:15:32.002Z,5.22
2022-12-27T05:18:00.973Z,4.38
2022-12-27T05:20:30.012Z,4.10
2022-12-27T05:23:17.033Z,5.20
2022-12-27T05:25:47.620Z,4.85
2022-12-27T05:28:16.806Z,4.45
2022-12-27T05:30:46.491Z,4.25
2022-12-27T05:33:15.567Z,6.65
2022-12-27T05:35:44.695Z,8.05
2022-12-27T05:38:13.740Z,5.22
2022-12-27T05:40:42.698Z,5.82
2022-12-27T05:43:11.680Z,5.22
2022-12-27T05:45:40.596Z,6.25
2022-12-27T05:48:09.596Z,5.40
2022-12-27T05:50:38.815Z,5.68
2022-12-27T05:53:07.855Z,4.90
2022-12-27T05:55:36.840Z,5.18
2022-12-27T05:58:05.928Z,5.35
2022-12-27T06:00:35.083Z,4.72
2022-12-27T06:03:05.075Z,4.75
2022-12-27T06:05:34.196Z,5.15
2022-12-27T06:08:03.207Z,5.32
2022-12-27T06:10:32.295Z,5.28
2022-12-27T06:13:04.787Z,6.68
2022-12-27T06:15:34.106Z,7.13
2022-12-27T06:18:04.642Z,6.70
2022-12-27T06:20:33.631Z,5.70
2022-12-27T06:23:02.649Z,6.82
2022-12-27T06:25:31.738Z,6.15
2022-12-27T06:28:00.735Z,6.70
2022-12-27T06:30:35.802Z,6.63
2022-12-27T06:33:05.246Z,6.03
2022-12-27T06:35:34.235Z,6.72
2022-12-27T06:38:03.191Z,5.28
2022-12-27T06:40:32.131Z,5.60
2022-12-27T06:43:01.084Z,6.95
2022-12-27T06:45:30.119Z,5.25
2022-12-27T06:47:59.162Z,6.85
2022-12-27T06:50:28.124Z,6.55
2022-12-27T06:52:57.111Z,6.15
2022-12-27T06:55:26.402Z,5.90
2022-12-27T06:57:55.415Z,5.32
2022-12-27T07:00:24.499Z,6.75
2022-12-27T07:02:53.759Z,6.25
2022-12-27T07:05:22.866Z,5.45
2022-12-27T07:07:54.441Z,4.60
2022-12-27T07:10:23.564Z,4.80
2022-12-27T07:12:52.574Z,5.22
2022-12-27T07:15:21.675Z,4.80
2022-12-27T07:17:50.822Z,4.90
2022-12-27T07:20:19.963Z,4.53
2022-12-27T07:22:49.001Z,5.30
2022-12-27T07:25:18.077Z,4.45
2022-12-27T07:27:47.048Z,5.85
2022-12-27T07:30:16.153Z,5.68
2022-12-27T07:32:47.997Z,4.72
2022-12-27T07:35:17.048Z,5.63
2022-12-27T07:37:48.341Z,5.32
2022-12-27T07:40:17.464Z,3.97
2022-12-27T07:42:47.025Z,4.13
2022-12-27T07:45:16.010Z,4.82
2022-12-27T07:47:45.002Z,5.18
2022-12-27T07:50:14.054Z,4.80
2022-12-27T07:52:43.080Z,5.28
2022-12-27T07:55:12.185Z,5.97
2022-12-27T07:57:41.150Z,5.18
2022-12-27T08:00:11.633Z,4.82
2022-12-27T08:02:40.634Z,4.68
2022-12-27T08:05:10.028Z,5.55
2022-12-27T08:07:39.852Z,5.22
2022-12-27T08:10:09.654Z,4.68
2022-12-27T08:12:41.441Z,5.32
2022-12-27T08:15:12.646Z,5.25
2022-12-27T08:17:44.014Z,5.30
2022-12-27T08:20:16.045Z,5.28
2022-12-27T08:22:45.087Z,4.55
2022-12-27T08:25:16.941Z,5.05
2022-12-27T08:27:48.431Z,5.25
2022-12-27T08:30:17.491Z,4.90
2022-12-27T08:32:46.516Z,5.45
2022-12-27T08:35:50.981Z,4.93
2022-12-27T08:38:04.953Z,4.80
2022-12-27T08:40:34.081Z,5.35
2022-12-27T08:43:03.075Z,4.72
2022-12-27T08:45:34.550Z,4.85
2022-12-27T08:48:07.020Z,5.07
2022-12-27T08:50:36.593Z,5.32
2022-12-27T08:53:07.206Z,4.75
2022-12-27T08:55:36.535Z,4.15
2022-12-27T08:58:13.943Z,4.78
2022-12-27T09:00:45.311Z,5.28
2022-12-27T09:03:14.405Z,4.78
2022-12-27T09:05:43.870Z,4.88
2022-12-27T09:08:13.690Z,5.05
2022-12-27T09:10:42.978Z,4.63
2022-12-27T09:13:12.055Z,4.32
2022-12-27T09:15:41.440Z,3.80
2022-12-27T09:18:12.229Z,4.32
2022-12-27T09:20:41.410Z,4.88
2022-12-27T09:23:10.483Z,5.13
2022-12-27T09:25:39.628Z,4.47
2022-12-27T09:28:09.171Z,4.43
2022-12-27T09:30:38.226Z,4.20
2022-12-27T09:33:08.032Z,5.15
2022-12-27T09:35:38.711Z,4.90
2022-12-27T09:38:07.995Z,5.28
2022-12-27T09:40:37.010Z,4.60
2022-12-27T09:43:23.964Z,5.63
2022-12-27T09:46:01.097Z,4.97
2022-12-27T09:51:17.553Z,4.50
2022-12-27T09:54:01.265Z,4.63
2022-12-27T09:57:01.760Z,4.28
2022-12-27T09:59:46.466Z,4.60
2022-12-27T10:02:29.636Z,4.47
2022-12-27T10:05:19.585Z,4.22
2022-12-27T10:08:27.363Z,5.22
2022-12-27T10:11:35.413Z,4.43
2022-12-27T10:14:27.671Z,4.88
2022-12-27T10:17:15.849Z,4.88
2022-12-27T10:19:54.496Z,6.00
2022-12-27T10:22:52.556Z,5.70
2022-12-27T10:25:24.470Z,5.30
2022-12-27T10:28:00.614Z,4.28
2022-12-27T10:30:32.400Z,5.18
2022-12-27T10:33:02.148Z,4.43
2022-12-27T10:35:31.647Z,5.18
2022-12-27T10:38:02.955Z,5.82
2022-12-27T10:41:24.273Z,7.20
2022-12-27T10:43:55.459Z,6.03
2022-12-27T10:46:32.150Z,6.85
2022-12-27T10:49:32.887Z,10.13
2022-12-27T10:52:25.045Z,7.63
2022-12-27T10:54:56.678Z,6.80
2022-12-27T10:57:35.681Z,6.22
2022-12-27T11:00:21.719Z,7.13
2022-12-27T11:02:59.254Z,7.15
2022-12-27T11:05:31.112Z,9.02
2022-12-27T11:08:02.308Z,8.57
2022-12-27T11:10:35.233Z,8.73
2022-12-27T11:13:08.883Z,9.35
2022-12-27T11:15:45.949Z,9.05
2022-12-27T11:18:25.923Z,9.80
2022-12-27T11:21:00.500Z,11.20
2022-12-27T11:23:37.487Z,11.32
2022-12-27T11:26:27.000Z,10.60
2022-12-27T11:29:02.908Z,13.32
2022-12-27T11:31:45.602Z,14.40
2022-12-27T11:34:45.698Z,17.42
2022-12-27T11:37:24.167Z,18.17
2022-12-27T11:39:56.151Z,17.20
2022-12-27T11:42:44.276Z,13.82
2022-12-27T11:45:28.458Z,12.20
2022-12-27T11:48:22.626Z,15.68
2022-12-27T11:51:31.093Z,15.15
2022-12-27T11:54:20.000Z,14.30
2022-12-27T11:57:07.642Z,14.20
2022-12-27T11:59:59.823Z,13.90
2022-12-27T12:02:50.398Z,21.10
2022-12-27T12:05:40.034Z,18.23
2022-12-27T12:08:37.157Z,17.35
2022-12-27T12:11:23.294Z,17.83
2022-12-27T12:14:36.564Z,17.10
2022-12-27T12:17:22.740Z,17.02
2022-12-27T12:20:25.727Z,22.90
2022-12-27T12:23:05.388Z,28.45
2022-12-27T12:25:49.699Z,26.17
2022-12-27T12:31:51.586Z,22.33
2022-12-27T12:34:20.607Z,33.30
2022-12-27T12:36:58.908Z,24.75
2022-12-27T12:39:52.559Z,27.30
2022-12-27T12:42:43.084Z,20.15
2022-12-27T12:45:31.365Z,20.02
2022-12-27T12:48:34.397Z,19.15
2022-12-27T12:51:34.733Z,19.75
2022-12-27T12:54:18.584Z,17.73
2022-12-27T12:57:06.474Z,22.48
2022-12-27T13:00:11.549Z,23.13
2022-12-27T13:05:47.695Z,21.85
2022-12-27T13:08:44.339Z,19.65
2022-12-27T13:11:32.080Z,21.33
2022-12-27T13:14:38.334Z,26.90
2022-12-27T13:17:39.801Z,34.00
2022-12-27T13:20:36.095Z,32.08
2022-12-27T13:23:46.952Z,19.85
2022-12-27T13:26:42.058Z,20.40
2022-12-27T13:29:14.191Z,20.33
2022-12-27T13:31:46.572Z,20.20
2022-12-27T13:34:35.363Z,18.13
2022-12-27T13:37:21.324Z,18.40
2022-12-27T13:40:29.550Z,18.70
2022-12-27T13:43:13.714Z,19.02
2022-12-27T13:45:48.688Z,21.70
2022-12-27T13:48:36.306Z,22.10
2022-12-27T13:51:14.562Z,23.40
2022-12-27T13:54:09.689Z,21.50
2022-12-27T13:57:32.280Z,20.48
2022-12-27T14:00:12.934Z,19.15
2022-12-27T14:03:18.801Z,20.52
2022-12-27T14:06:06.407Z,18.85
2022-12-27T14:08:56.802Z,21.08
2022-12-27T14:11:47.255Z,21.17
2022-12-27T14:14:19.674Z,21.00
2022-12-27T14:17:15.019Z,20.63
2022-12-27T14:20:34.805Z,20.10
2022-12-27T14:23:25.002Z,19.30
2022-12-27T14:26:21.424Z,20.10
2022-12-27T14:29:18.217Z,19.05
2022-12-27T14:32:27.875Z,19.45
2022-12-27T14:35:18.970Z,32.13
2022-12-27T14:38:24.871Z,21.17
2022-12-27T14:41:05.802Z,19.60
2022-12-27T14:44:13.084Z,20.85
2022-12-27T14:46:54.062Z,18.63
2022-12-27T14:49:35.714Z,19.38
2022-12-27T14:52:13.824Z,18.40
2022-12-27T14:54:57.982Z,18.17
2022-12-27T14:57:34.269Z,19.77
2022-12-27T15:00:25.701Z,19.13
2022-12-27T15:03:15.632Z,19.08
2022-12-27T15:06:18.442Z,18.60
2022-12-27T15:09:11.929Z,20.27
2022-12-27T15:11:53.921Z,18.98
2022-12-27T15:14:42.464Z,19.90
2022-12-27T15:17:18.434Z,19.00
2022-12-27T15:19:59.536Z,21.13
2022-12-27T15:23:06.550Z,24.58
2022-12-27T15:25:41.896Z,23.60
2022-12-27T15:28:28.843Z,23.90
2022-12-27T15:31:19.672Z,27.50
2022-12-27T15:34:10.068Z,27.73
2022-12-27T15:36:44.991Z,25.67
2022-12-27T15:39:35.122Z,21.98
2022-12-27T15:42:37.097Z,22.70
2022-12-27T15:45:19.885Z,20.60
2022-12-27T15:48:00.828Z,20.85
2022-12-27T15:50:40.649Z,20.63
2022-12-27T15:53:44.922Z,20.05
2022-12-27T15:56:16.968Z,18.97
2022-12-27T15:58:46.353Z,16.83
2022-12-27T16:01:25.530Z,16.05
2022-12-27T16:03:56.260Z,16.52
2022-12-27T16:06:37.431Z,16.23
2022-12-27T16:09:25.032Z,15.35
2022-12-27T16:12:09.081Z,13.07
2022-12-27T16:14:41.017Z,14.82
2022-12-27T16:17:31.504Z,14.52
2022-12-27T16:20:06.851Z,14.02
2022-12-27T16:22:44.669Z,13.68
2022-12-27T16:25:31.258Z,14.05
2022-12-27T16:28:03.555Z,13.68
2022-12-27T16:30:49.869Z,12.10
2022-12-27T16:33:29.239Z,12.88
2022-12-27T16:36:18.322Z,12.43
2022-12-27T16:38:47.689Z,12.68
2022-12-27T16:41:53.435Z,11.95
2022-12-27T16:44:36.232Z,12.95
2022-12-27T16:47:34.658Z,11.32
2022-12-27T16:50:41.167Z,11.77
2022-12-27T16:53:33.677Z,12.48
2022-12-27T16:56:16.406Z,12.73
2022-12-27T16:58:45.527Z,12.00
2022-12-27T17:01:53.826Z,11.55
2022-12-27T17:04:59.338Z,12.98
2022-12-27T17:07:51.462Z,13.85
2022-12-27T17:10:29.604Z,14.07
2022-12-27T17:13:01.241Z,13.65
2022-12-27T17:15:31.523Z,14.10
2022-12-27T17:18:10.554Z,13.35
2022-12-27T17:20:42.131Z,12.25
2022-12-27T17:23:11.550Z,12.73
2022-12-27T17:25:50.025Z,12.82
2022-12-27T17:28:30.567Z,10.63
2022-12-27T17:31:14.473Z,9.93
2022-12-27T17:33:59.504Z,9.77
2022-12-27T17:36:48.673Z,9.57
2022-12-27T17:39:57.597Z,9.85
2022-12-27T17:43:43.493Z,8.85
2022-12-27T17:46:31.173Z,7.55
2022-12-27T17:49:00.412Z,7.47
2022-12-27T17:51:31.722Z,6.28
2022-12-27T17:54:19.198Z,7.50
2022-12-27T17:57:17.426Z,7.68
2022-12-27T17:59:51.598Z,6.70
2022-12-27T18:04:53.094Z,4.88
2022-12-27T18:07:29.996Z,5.07
2022-12-27T18:10:24.626Z,4.78
2022-12-27T18:13:01.433Z,5.03
2022-12-27T18:15:35.261Z,5.75
2022-12-27T18:18:07.828Z,5.18
2022-12-27T18:20:39.273Z,5.63
2022-12-27T18:23:14.447Z,5.40
2022-12-27T18:25:46.209Z,5.32
2022-12-27T18:28:21.263Z,5.50
2022-12-27T18:30:53.178Z,5.15
2022-12-27T18:33:40.759Z,5.15
2022-12-27T18:36:14.343Z,5.45
2022-12-27T18:38:49.328Z,5.30
2022-12-27T18:41:22.505Z,5.38
2022-12-27T18:44:01.105Z,5.20
2022-12-27T18:46:33.877Z,5.15
2022-12-27T18:49:03.882Z,5.68
2022-12-27T18:51:38.171Z,5.53
2022-12-27T18:54:29.923Z,5.80
2022-12-27T18:57:00.710Z,5.05
2022-12-27T18:59:32.516Z,5.57
2022-12-27T19:02:04.393Z,5.93
2022-12-27T19:04:34.971Z,5.97
2022-12-27T19:07:14.175Z,5.90
2022-12-27T19:09:51.008Z,5.30
2022-12-27T19:12:41.051Z,5.07
2022-12-27T19:15:29.372Z,4.43
2022-12-27T19:18:05.312Z,4.40
2022-12-27T19:20:38.442Z,4.65
2022-12-27T19:23:28.813Z,4.72
2022-12-27T19:26:19.353Z,5.28
2022-12-27T19:29:03.795Z,4.88
2022-12-27T19:34:07.563Z,5.22
2022-12-27T19:36:41.103Z,4.82
2022-12-27T19:39:23.443Z,5.00
2022-12-27T19:41:53.360Z,6.00
2022-12-27T19:44:30.047Z,5.20
2022-12-27T19:46:59.564Z,6.45
2022-12-27T19:49:44.893Z,5.10
2022-12-27T19:52:20.136Z,6.65
2022-12-27T19:54:50.751Z,6.25
2022-12-27T19:57:19.900Z,5.63
2022-12-27T19:59:48.882Z,6.00
2022-12-27T20:02:19.402Z,6.97
2022-12-27T20:04:48.459Z,6.30
2022-12-27T20:07:26.026Z,6.45
2022-12-27T20:09:55.142Z,6.78
2022-12-27T20:12:24.159Z,6.72
2022-12-27T20:14:53.159Z,7.47
2022-12-27T20:17:22.195Z,6.80
2022-12-27T20:19:52.785Z,7.30
2022-12-27T20:22:21.867Z,7.63
2022-12-27T20:24:52.412Z,6.57
2022-12-27T20:27:24.823Z,6.55
2022-12-27T20:29:53.820Z,7.25
2022-12-27T20:32:22.841Z,5.30
2022-12-27T20:34:51.863Z,5.60
2022-12-27T20:37:24.577Z,5.70
2022-12-27T20:39:53.996Z,5.63
2022-12-27T20:42:24.851Z,6.18
2022-12-27T20:44:53.874Z,5.63
2022-12-27T20:47:22.866Z,5.30
2022-12-27T20:49:52.269Z,5.45
2022-12-27T20:52:24.382Z,5.63
2022-12-27T20:54:57.903Z,5.22
2022-12-27T20:57:26.871Z,5.18
2022-12-27T20:59:55.875Z,5.80
2022-12-27T21:02:25.045Z,6.07
2022-12-27T21:04:54.445Z,6.00
2022-12-27T21:07:23.521Z,4.75
2022-12-27T21:09:52.563Z,5.18
2022-12-27T21:12:21.605Z,6.43
2022-12-27T21:14:51.177Z,6.00
2022-12-27T21:17:20.250Z,5.40
2022-12-27T21:19:49.209Z,5.40
2022-12-27T21:22:18.283Z,5.57
2022-12-27T21:24:47.259Z,5.72
2022-12-27T21:27:16.317Z,5.90
2022-12-27T21:29:45.527Z,5.97
2022-12-27T21:32:14.525Z,6.70
2022-12-27T21:34:43.880Z,6.00
2022-12-27T21:37:13.620Z,5.85
2022-12-27T21:39:42.908Z,5.30
2022-12-27T21:42:13.461Z,4.45
2022-12-27T21:44:42.521Z,4.20
2022-12-27T21:47:11.517Z,5.10
2022-12-27T21:49:42.528Z,19.10
2022-12-27T21:52:11.467Z,18.42
2022-12-27T21:54:40.493Z,17.38
2022-12-27T21:57:09.579Z,18.23
2022-12-27T21:59:38.667Z,4.85
2022-12-27T22:02:07.818Z,4.65
2022-12-27T22:07:18.918Z,5.28
2022-12-27T22:09:47.943Z,5.07
2022-12-27T22:12:16.924Z,5.82
2022-12-27T22:14:45.882Z,5.20
2022-12-27T22:17:14.848Z,4.80
2022-12-27T22:19:43.946Z,5.38
2022-12-27T22:22:12.955Z,6.32
2022-12-27T22:24:42.126Z,5.45
2022-12-27T22:27:11.102Z,5.13
2022-12-27T22:29:40.092Z,5.53
2022-12-27T22:35:05.145Z,5.38
2022-12-27T22:37:34.143Z,4.22
2022-12-27T22:40:03.145Z,4.70
2022-12-27T22:42:32.653Z,5.13
2022-12-27T22:45:01.657Z,4.85
2022-12-27T22:47:34.359Z,4.95
2022-12-27T22:50:06.849Z,10.55
2022-12-27T22:52:35.834Z,11.20
2022-12-27T22:55:07.197Z,11.80
2022-12-27T22:57:36.401Z,22.52
2022-12-27T23:00:10.601Z,21.50
2022-12-27T23:05:09.001Z,20.25
2022-12-27T23:08:05.146Z,8.65
2022-12-27T23:10:27.769Z,9.27
2022-12-27T23:12:58.438Z,5.55
2022-12-27T23:15:27.519Z,7.38
2022-12-27T23:17:56.556Z,8.52
2022-12-27T23:20:25.565Z,10.40
2022-12-27T23:22:54.559Z,7.45
2022-12-27T23:25:23.521Z,7.43
2022-12-27T23:27:52.534Z,9.55
2022-12-27T23:30:24.088Z,25.52
2022-12-27T23:32:53.067Z,21.02
2022-12-27T23:35:24.752Z,20.70
2022-12-27T23:37:54.049Z,33.88
2022-12-27T23:40:23.153Z,17.73
2022-12-27T23:42:52.161Z,17.92
2022-12-27T23:45:21.336Z,18.95
2022-12-27T23:47:50.553Z,18.63
2022-12-27T23:50:21.156Z,8.77
2022-12-27T23:52:50.618Z,7.70
2022-12-27T23:55:19.812Z,9.35
2022-12-27T23:57:48.796Z,9.13
